Time;durP1;ratioP1;P1;durP2;ratioP2;P2;SDS_P1;SDS_P2;PMS_P1;PMS_P2;Temp;Humidity;BMP_temperature;BMP_pressure;BME280_temperature;BME280_humidity;BME280_pressure;Samples;Min_cycle;Max_cycle;Signal;HPM_P1;HPM_P2
2022/10/16 00:01:10;;;;;;;7.03;3.03;;;;;;;10.72;100.00;100855.97;5049313;28;20048;-55
2022/10/16 00:03:39;;;;;;;7.63;2.58;;;;;;;10.75;100.00;100856.56;5047792;28;20496;-53
2022/10/16 00:06:10;;;;;;;8.32;2.80;;;;;;;10.73;100.00;100855.84;5049121;28;20136;-53
2022/10/16 00:08:38;;;;;;;5.15;2.60;;;;;;;10.73;100.00;100857.63;5032051;28;20122;-52
2022/10/16 00:11:09;;;;;;;8.25;3.13;;;;;;;10.72;100.00;100856.78;5049091;28;20053;-53
2022/10/16 00:13:39;;;;;;;9.18;2.50;;;;;;;10.72;100.00;100858.59;5049109;28;20052;-52
2022/10/16 00:16:09;;;;;;;8.85;3.00;;;;;;;10.73;100.00;100855.84;5035647;28;20126;-52
2022/10/16 00:18:38;;;;;;;6.18;2.60;;;;;;;10.71;100.00;100854.25;5047817;28;20052;-52
2022/10/16 00:21:08;;;;;;;6.18;2.85;;;;;;;10.75;100.00;100855.75;5048624;28;20053;-53
2022/10/16 00:23:38;;;;;;;11.80;3.17;;;;;;;10.70;100.00;100842.88;5049500;28;20052;-51
2022/10/16 00:26:09;;;;;;;8.90;3.00;;;;;;;10.70;100.00;100848.13;5048440;28;20599;-54
2022/10/16 00:28:37;;;;;;;6.22;2.97;;;;;;;10.61;100.00;100854.84;5048902;28;20443;-54
2022/10/16 00:31:07;;;;;;;10.68;3.63;;;;;;;10.59;100.00;100853.25;5048662;28;20052;-53
2022/10/16 00:33:36;;;;;;;10.13;4.13;;;;;;;10.55;100.00;100850.00;5047833;28;20045;-50
2022/10/16 00:36:05;;;;;;;8.30;3.70;;;;;;;10.51;100.00;100851.13;5048545;28;20041;-55
2022/10/16 00:38:33;;;;;;;8.68;4.00;;;;;;;10.48;100.00;100849.56;5049212;28;20562;-53
2022/10/16 00:41:03;;;;;;;9.07;4.18;;;;;;;10.38;100.00;100848.44;5048783;28;20455;-54
2022/10/16 00:43:37;;;;;;;8.07;3.95;;;;;;;10.33;100.00;100850.50;5048385;28;20511;-54
2022/10/16 00:46:14;;;;;;;8.48;4.47;;;;;;;10.33;100.00;100855.75;5048508;28;20057;-53
2022/10/16 00:48:46;;;;;;;11.57;4.53;;;;;;;10.37;100.00;100856.44;5049667;28;20045;-52
2022/10/16 00:51:15;;;;;;;9.73;4.95;;;;;;;10.38;100.00;100847.63;5052605;28;20977;-53
2022/10/16 00:53:45;;;;;;;10.80;4.82;;;;;;;10.38;100.00;100850.25;5053234;28;20099;-54
2022/10/16 00:56:14;;;;;;;9.35;4.22;;;;;;;10.34;100.00;100848.72;5052495;28;20511;-53
2022/10/16 00:58:43;;;;;;;10.48;4.28;;;;;;;10.30;100.00;100845.44;5052692;28;20053;-51
2022/10/16 01:01:11;;;;;;;8.38;4.47;;;;;;;10.26;100.00;100849.22;5051645;28;20076;-49
2022/10/16 01:03:39;;;;;;;8.45;4.10;;;;;;;10.24;100.00;100854.56;5050938;28;20115;-51
2022/10/16 01:06:23;;;;;;;9.38;4.35;;;;;;;10.22;100.00;100859.06;5052842;28;20041;-48
2022/10/16 01:09:12;;;;;;;11.68;5.13;;;;;;;10.19;100.00;100856.63;5052851;28;20049;-50
2022/10/16 01:11:49;;;;;;;7.72;4.78;;;;;;;10.18;100.00;100860.19;5052818;28;20507;-48
2022/10/16 01:14:27;;;;;;;15.30;5.43;;;;;;;10.15;100.00;100865.66;5052638;28;20049;-50
2022/10/16 01:17:02;;;;;;;9.88;5.18;;;;;;;10.13;100.00;100855.25;5051627;28;20060;-51
2022/10/16 01:20:02;;;;;;;10.75;5.13;;;;;;;10.14;100.00;100862.19;5051482;28;20057;-51
2022/10/16 01:22:41;;;;;;;9.85;4.82;;;;;;;10.14;100.00;100861.34;5052077;28;20114;-52
2022/10/16 01:25:15;;;;;;;8.75;5.18;;;;;;;10.12;100.00;100860.59;5052005;28;20049;-51
2022/10/16 01:27:48;;;;;;;12.35;5.43;;;;;;;10.07;100.00;100850.34;5052106;28;20045;-53
2022/10/16 01:30:21;;;;;;;10.52;5.03;;;;;;;10.08;100.00;100843.34;5052423;28;20041;-55
2022/10/16 01:32:53;;;;;;;9.93;4.90;;;;;;;10.07;100.00;100839.03;5050676;28;20061;-51
2022/10/16 01:35:26;;;;;;;9.23;4.43;;;;;;;10.03;100.00;100848.88;5052150;28;20492;-48
2022/10/16 01:38:02;;;;;;;9.68;4.93;;;;;;;10.02;100.00;100846.34;5052145;28;20051;-48
2022/10/16 01:40:33;;;;;;;11.23;4.90;;;;;;;10.01;100.00;100844.66;5051890;28;20075;-49
2022/10/16 01:43:06;;;;;;;10.05;5.10;;;;;;;10.01;100.00;100842.88;5051624;28;20047;-46
2022/10/16 01:45:37;;;;;;;7.25;3.90;;;;;;;9.99;100.00;100850.00;5034708;28;20049;-47
2022/10/16 01:48:09;;;;;;;9.93;4.80;;;;;;;9.96;100.00;100848.41;5032245;28;20392;-46
2022/10/16 01:50:42;;;;;;;8.00;4.53;;;;;;;9.95;100.00;100844.13;5052181;28;20503;-47
2022/10/16 01:53:14;;;;;;;10.55;4.50;;;;;;;10.00;100.00;100846.44;5051016;28;20049;-47
2022/10/16 01:55:46;;;;;;;10.70;4.63;;;;;;;10.02;100.00;100859.47;5051869;28;20060;-51
2022/10/16 01:58:16;;;;;;;7.78;4.13;;;;;;;10.02;100.00;100851.59;5051283;28;20069;-52
2022/10/16 02:00:47;;;;;;;8.38;4.75;;;;;;;10.09;100.00;100860.78;5051898;28;20048;-47
2022/10/16 02:03:19;;;;;;;11.20;4.72;;;;;;;10.13;100.00;100864.94;5050006;28;20079;-46
2022/10/16 02:05:50;;;;;;;9.90;4.53;;;;;;;10.15;100.00;100876.16;5052160;28;20056;-50
2022/10/16 02:08:19;;;;;;;9.20;4.33;;;;;;;10.18;100.00;100862.81;5051562;28;20045;-47
2022/10/16 02:10:48;;;;;;;9.25;4.28;;;;;;;10.23;100.00;100854.66;5033713;28;21065;-53
2022/10/16 02:13:23;;;;;;;10.07;4.65;;;;;;;10.24;100.00;100851.06;5051133;28;20156;-47
2022/10/16 02:15:52;;;;;;;9.38;4.32;;;;;;;10.31;100.00;100860.28;5051166;28;20065;-50
2022/10/16 02:18:22;;;;;;;9.25;3.83;;;;;;;10.37;100.00;100852.00;5049715;28;20045;-51
2022/10/16 02:20:56;;;;;;;7.55;3.53;;;;;;;10.38;100.00;100860.75;5051426;28;20053;-50
2022/10/16 02:23:36;;;;;;;6.18;3.78;;;;;;;10.39;100.00;100863.28;5051412;28;20044;-53
2022/10/16 02:26:07;;;;;;;7.90;4.05;;;;;;;10.41;100.00;100864.03;5051282;28;20760;-53
2022/10/16 02:28:42;;;;;;;7.28;4.20;;;;;;;10.50;100.00;100867.88;5051303;28;20099;-54
2022/10/16 02:31:17;;;;;;;9.48;4.15;;;;;;;10.60;100.00;100874.19;5050253;28;20603;-54
2022/10/16 02:33:46;;;;;;;9.25;4.25;;;;;;;10.70;100.00;100863.91;5049638;28;20503;-52
2022/10/16 02:36:15;;;;;;;7.95;3.92;;;;;;;10.67;100.00;100863.28;5050999;28;20131;-52
2022/10/16 02:38:43;;;;;;;6.50;3.42;;;;;;;10.71;100.00;100859.53;5051057;28;20049;-51
2022/10/16 02:41:11;;;;;;;6.10;3.50;;;;;;;10.68;100.00;100860.56;5050405;28;20063;-52
2022/10/16 02:43:41;;;;;;;9.80;3.65;;;;;;;10.70;100.00;100856.03;5050819;28;20045;-50
2022/10/16 02:46:10;;;;;;;7.50;3.40;;;;;;;10.72;100.00;100846.25;5050406;28;20057;-47
2022/10/16 02:48:39;;;;;;;6.93;3.60;;;;;;;10.69;100.00;100858.75;5049714;28;20053;-50
2022/10/16 02:51:07;;;;;;;6.68;3.00;;;;;;;10.69;100.00;100871.91;5050401;28;20037;-48
2022/10/16 02:53:35;;;;;;;9.90;3.25;;;;;;;10.68;100.00;100859.72;5050988;28;20049;-51
2022/10/16 02:56:06;;;;;;;6.25;3.28;;;;;;;10.68;100.00;100867.63;5050643;28;20140;-53
2022/10/16 02:58:34;;;;;;;8.50;3.42;;;;;;;10.69;100.00;100867.50;5050913;28;20041;-52
2022/10/16 03:01:03;;;;;;;8.68;3.10;;;;;;;10.74;100.00;100878.56;5032224;28;20045;-53
2022/10/16 03:03:32;;;;;;;7.47;2.95;;;;;;;10.76;100.00;100883.75;5049104;28;20037;-49
2022/10/16 03:06:00;;;;;;;5.15;2.85;;;;;;;10.78;100.00;100876.59;5050596;28;20048;-51
2022/10/16 03:08:29;;;;;;;8.52;3.00;;;;;;;10.74;100.00;100869.84;5050706;28;20049;-53
2022/10/16 03:10:57;;;;;;;6.82;3.00;;;;;;;10.70;100.00;100866.53;5050213;28;20049;-51
2022/10/16 03:13:25;;;;;;;7.95;2.80;;;;;;;10.68;100.00;100870.25;5049756;28;20154;-52
2022/10/16 03:15:53;;;;;;;6.40;2.97;;;;;;;10.64;100.00;100872.22;5049937;28;20045;-53
2022/10/16 03:18:26;;;;;;;6.97;2.78;;;;;;;10.71;100.00;100864.78;5048586;28;20144;-51
2022/10/16 03:20:54;;;;;;;8.68;2.80;;;;;;;10.70;100.00;100865.72;5049992;28;20061;-48
2022/10/16 03:23:22;;;;;;;6.88;2.80;;;;;;;10.71;100.00;100870.03;5050182;28;20072;-49
2022/10/16 03:25:50;;;;;;;4.97;2.40;;;;;;;10.70;100.00;100877.06;5050696;28;20052;-49
2022/10/16 03:28:18;;;;;;;5.68;2.88;;;;;;;10.72;100.00;100872.56;5050114;28;20472;-47
2022/10/16 03:30:46;;;;;;;7.07;2.67;;;;;;;10.71;100.00;100888.44;5050787;28;20055;-48
2022/10/16 03:33:14;;;;;;;6.93;2.90;;;;;;;10.75;100.00;100880.25;5047960;28;20051;-47
2022/10/16 03:35:51;;;;;;;4.78;2.83;;;;;;;10.72;100.00;100882.25;5050312;28;20099;-52
2022/10/16 03:38:19;;;;;;;6.75;2.90;;;;;;;10.74;100.00;100882.97;5049729;28;20041;-51
2022/10/16 03:40:47;;;;;;;5.60;2.50;;;;;;;10.75;100.00;100879.41;5050557;28;20056;-54
2022/10/16 03:43:15;;;;;;;6.35;2.78;;;;;;;10.74;100.00;100880.34;5049405;28;21129;-54
2022/10/16 03:45:44;;;;;;;7.80;2.90;;;;;;;10.74;100.00;100896.13;5050584;28;20140;-53
2022/10/16 03:48:12;;;;;;;5.70;2.83;;;;;;;10.75;100.00;100897.84;5047729;28;20076;-50
2022/10/16 03:50:40;;;;;;;5.15;2.42;;;;;;;10.77;100.00;100894.16;5050082;28;20055;-48
2022/10/16 03:53:10;;;;;;;8.00;2.67;;;;;;;10.75;100.00;100898.66;5049395;28;20546;-50
2022/10/16 03:55:38;;;;;;;8.10;2.90;;;;;;;10.79;100.00;100900.16;5049869;28;20045;-52
2022/10/16 03:58:06;;;;;;;9.70;2.90;;;;;;;10.78;100.00;100898.50;5049239;28;20119;-51
2022/10/16 04:00:35;;;;;;;6.22;2.53;;;;;;;10.76;100.00;100894.25;5050099;28;20504;-50
2022/10/16 04:03:03;;;;;;;6.15;2.80;;;;;;;10.79;100.00;100891.44;5047528;28;20045;-48
2022/10/16 04:05:31;;;;;;;5.03;2.63;;;;;;;10.80;100.00;100890.50;5049645;28;20057;-49
2022/10/16 04:07:59;;;;;;;5.25;2.60;;;;;;;10.80;100.00;100887.84;5049580;28;20053;-51
2022/10/16 04:10:29;;;;;;;6.28;2.67;;;;;;;10.85;100.00;100896.28;5049336;28;20103;-48
2022/10/16 04:12:57;;;;;;;7.85;3.38;;;;;;;10.83;100.00;100909.53;5048967;28;20408;-49
2022/10/16 04:15:26;;;;;;;6.35;2.92;;;;;;;10.88;100.00;100911.03;5031647;28;20037;-52
2022/10/16 04:17:54;;;;;;;6.35;2.85;;;;;;;10.87;100.00;100918.06;5029808;28;20045;-52
2022/10/16 04:20:22;;;;;;;7.00;2.80;;;;;;;10.88;100.00;100926.81;5049471;28;20699;-52
2022/10/16 04:22:51;;;;;;;5.93;2.72;;;;;;;10.87;100.00;100922.50;5047879;28;20135;-53
2022/10/16 04:25:18;;;;;;;9.13;2.80;;;;;;;10.93;100.00;100930.81;5049209;28;20037;-50
2022/10/16 04:27:48;;;;;;;6.90;2.78;;;;;;;10.96;100.00;100925.38;5049058;28;20048;-52
2022/10/16 04:30:17;;;;;;;5.88;2.67;;;;;;;10.95;100.00;100926.31;5049237;28;20094;-51
2022/10/16 04:32:49;;;;;;;5.55;2.70;;;;;;;10.95;100.00;100936.84;5047442;28;20087;-55
2022/10/16 04:35:17;;;;;;;4.80;2.58;;;;;;;11.00;100.00;100936.53;5049485;28;20037;-54
2022/10/16 04:37:46;;;;;;;7.68;2.85;;;;;;;11.01;100.00;100937.38;5049526;28;20041;-50
2022/10/16 04:40:14;;;;;;;8.50;2.78;;;;;;;11.01;100.00;100945.28;5048687;28;20056;-48
2022/10/16 04:42:42;;;;;;;4.32;2.50;;;;;;;11.01;100.00;100942.66;5048555;28;20511;-50
2022/10/16 04:45:12;;;;;;;7.20;2.58;;;;;;;11.03;100.00;100948.66;5030378;28;20111;-53
2022/10/16 04:47:44;;;;;;;6.53;2.78;;;;;;;11.03;100.00;100948.66;5046855;28;20141;-53
2022/10/16 04:50:12;;;;;;;7.45;2.88;;;;;;;11.03;100.00;100954.78;5030805;28;20053;-47
2022/10/16 04:52:40;;;;;;;4.97;2.50;;;;;;;11.04;100.00;100952.97;5049231;28;20551;-49
2022/10/16 04:55:09;;;;;;;5.88;3.22;;;;;;;11.03;100.00;100951.28;5048671;28;20049;-49
2022/10/16 04:57:37;;;;;;;5.30;2.40;;;;;;;10.97;100.00;100955.16;5049389;28;20061;-49
2022/10/16 05:00:06;;;;;;;7.25;2.38;;;;;;;10.91;100.00;100953.78;5049093;28;20059;-47
2022/10/16 05:02:35;;;;;;;4.85;2.40;;;;;;;10.94;100.00;100971.97;5047211;28;20053;-51
2022/10/16 05:05:04;;;;;;;4.95;2.63;;;;;;;10.93;100.00;100967.66;5048869;28;20033;-53
2022/10/16 05:07:32;;;;;;;5.80;2.63;;;;;;;10.90;100.00;100967.88;5049242;28;20056;-50
2022/10/16 05:10:00;;;;;;;6.63;3.03;;;;;;;10.95;100.00;100965.78;5049043;28;20499;-48
2022/10/16 05:12:28;;;;;;;5.97;2.60;;;;;;;10.99;100.00;100975.16;5048457;28;20048;-52
2022/10/16 05:14:58;;;;;;;6.35;2.72;;;;;;;10.95;100.00;100970.22;5048564;28;20043;-50
2022/10/16 05:17:26;;;;;;;5.32;2.72;;;;;;;10.98;100.00;100973.47;5047111;28;20076;-51
2022/10/16 05:19:57;;;;;;;5.50;2.60;;;;;;;10.99;100.00;100979.59;5048461;28;20053;-52
2022/10/16 05:22:25;;;;;;;6.85;2.67;;;;;;;10.94;100.00;100982.50;5048532;28;20072;-48
2022/10/16 05:24:53;;;;;;;9.02;3.13;;;;;;;10.92;100.00;100984.41;5048907;28;20480;-53
2022/10/16 05:27:21;;;;;;;6.10;3.00;;;;;;;10.93;100.00;100998.41;5048390;28;20071;-53
2022/10/16 05:29:50;;;;;;;6.07;2.60;;;;;;;10.87;100.00;101004.06;5048969;28;20131;-54
2022/10/16 05:32:19;;;;;;;5.68;2.60;;;;;;;10.87;100.00;101004.91;5047008;28;20114;-54
2022/10/16 05:34:47;;;;;;;8.20;2.95;;;;;;;10.86;100.00;101005.84;5051234;28;20044;-53
2022/10/16 05:37:17;;;;;;;4.45;2.25;;;;;;;10.84;100.00;101013.00;5052378;28;20056;-54
2022/10/16 05:39:45;;;;;;;4.43;2.40;;;;;;;10.78;100.00;101008.97;5034800;28;20059;-53
2022/10/16 05:42:14;;;;;;;7.72;2.40;;;;;;;10.77;100.00;101016.94;5051538;28;20044;-53
2022/10/16 05:44:42;;;;;;;8.90;2.75;;;;;;;10.73;100.00;101015.44;5052336;28;20045;-51
2022/10/16 05:47:11;;;;;;;5.78;3.10;;;;;;;10.75;100.00;101019.66;5050598;28;20053;-53
2022/10/16 05:49:42;;;;;;;7.43;2.90;;;;;;;10.69;100.00;101030.59;5051804;28;20095;-54
2022/10/16 05:52:10;;;;;;;6.75;2.35;;;;;;;10.67;100.00;101036.88;5051262;28;20060;-53
2022/10/16 05:54:39;;;;;;;7.45;2.70;;;;;;;10.64;100.00;101033.50;5051876;28;20049;-51
2022/10/16 05:57:07;;;;;;;5.80;2.80;;;;;;;10.60;100.00;101039.88;5033300;28;20098;-53
2022/10/16 05:59:36;;;;;;;5.15;2.53;;;;;;;10.57;100.00;101055.88;5052067;28;20060;-55
2022/10/16 06:02:05;;;;;;;5.82;2.58;;;;;;;10.53;100.00;101054.38;5050876;28;20036;-51
2022/10/16 06:04:33;;;;;;;6.38;2.80;;;;;;;10.51;100.00;101058.84;5051270;28;20052;-53
2022/10/16 06:07:01;;;;;;;5.47;2.78;;;;;;;10.56;100.00;101056.78;5052035;28;20555;-53
2022/10/16 06:09:29;;;;;;;5.57;2.72;;;;;;;10.61;100.00;101067.06;5051650;28;20099;-52
2022/10/16 06:11:59;;;;;;;6.95;3.00;;;;;;;10.59;100.00;101071.53;5051485;28;20124;-54
2022/10/16 06:14:27;;;;;;;7.53;2.70;;;;;;;10.56;100.00;101072.56;5051943;28;20368;-54
2022/10/16 06:16:57;;;;;;;4.65;2.55;;;;;;;10.59;100.00;101071.53;5050705;28;20049;-53
2022/10/16 06:19:25;;;;;;;9.45;2.95;;;;;;;10.57;100.00;101076.06;5050253;28;20112;-53
2022/10/16 06:21:53;;;;;;;6.10;2.83;;;;;;;10.54;100.00;101074.47;5051736;28;20080;-51
2022/10/16 06:24:21;;;;;;;6.03;2.90;;;;;;;10.51;100.00;101074.63;5051230;28;20049;-52
2022/10/16 06:26:49;;;;;;;8.40;3.40;;;;;;;10.55;100.00;101075.31;5051936;28;20119;-47
2022/10/16 06:29:19;;;;;;;4.78;2.70;;;;;;;10.54;100.00;101081.50;5051245;28;20040;-49
2022/10/16 06:31:47;;;;;;;6.80;3.03;;;;;;;10.59;100.00;101076.81;5051389;28;20065;-52
2022/10/16 06:34:15;;;;;;;6.03;2.80;;;;;;;10.63;100.00;101081.81;5049923;28;20060;-54
2022/10/16 06:36:43;;;;;;;7.43;2.85;;;;;;;10.65;100.00;101092.22;5051642;28;20044;-51
2022/10/16 06:39:12;;;;;;;8.75;3.15;;;;;;;10.67;100.00;101084.25;5032725;28;20048;-53
2022/10/16 06:41:40;;;;;;;6.82;3.20;;;;;;;10.74;100.00;101089.00;5050873;28;20055;-52
2022/10/16 06:44:08;;;;;;;9.68;2.92;;;;;;;10.77;100.00;101095.84;5050113;28;20140;-53
2022/10/16 06:46:38;;;;;;;7.40;3.10;;;;;;;10.82;100.00;101093.78;5032360;28;20056;-53
2022/10/16 06:49:06;;;;;;;7.97;3.28;;;;;;;10.90;100.00;101106.50;5049544;28;20058;-54
2022/10/16 06:51:36;;;;;;;6.05;3.30;;;;;;;10.96;100.00;101106.09;5050783;28;20044;-53
2022/10/16 06:54:09;;;;;;;7.43;3.58;;;;;;;11.00;100.00;101112.84;5050522;28;20048;-54
2022/10/16 06:56:37;;;;;;;8.95;3.30;;;;;;;11.11;100.00;101127.97;5050725;28;20052;-54
2022/10/16 06:59:05;;;;;;;7.32;3.15;;;;;;;11.23;100.00;101123.72;5050279;28;20534;-53
2022/10/16 07:01:34;;;;;;;9.35;3.67;;;;;;;11.30;100.00;101133.78;5050215;28;20052;-53
2022/10/16 07:04:03;;;;;;;8.27;3.15;;;;;;;11.41;100.00;101137.50;5048992;28;20044;-53
2022/10/16 07:06:34;;;;;;;8.02;3.53;;;;;;;11.49;100.00;101143.13;5051124;28;20045;-52
2022/10/16 07:09:05;;;;;;;6.50;3.00;;;;;;;11.54;100.00;101146.31;5050671;28;20048;-52
2022/10/16 07:11:34;;;;;;;6.65;3.03;;;;;;;11.59;100.00;101146.88;5050853;28;20052;-53
2022/10/16 07:14:02;;;;;;;7.78;3.55;;;;;;;11.66;100.00;101153.41;5049855;28;20075;-53
2022/10/16 07:16:32;;;;;;;8.32;3.33;;;;;;;11.70;100.00;101151.44;5049893;28;20061;-54
2022/10/16 07:19:02;;;;;;;7.20;3.17;;;;;;;11.76;100.00;101160.72;5049068;28;20053;-55
2022/10/16 07:21:35;;;;;;;6.82;2.85;;;;;;;11.78;100.00;101164.97;5050172;28;20499;-54
2022/10/16 07:24:05;;;;;;;6.13;3.10;;;;;;;11.81;100.00;101170.03;5050285;28;20249;-50
2022/10/16 07:26:35;;;;;;;7.28;3.13;;;;;;;11.88;100.00;101175.72;5050500;28;20041;-50
2022/10/16 07:29:04;;;;;;;7.93;3.70;;;;;;;11.91;100.00;101180.81;5049961;28;21038;-50
2022/10/16 07:31:32;;;;;;;6.88;3.17;;;;;;;11.96;100.00;101181.38;5050198;28;20102;-53
2022/10/16 07:34:01;;;;;;;8.45;3.15;;;;;;;12.03;100.00;101199.44;5048237;28;20045;-54
2022/10/16 07:36:33;;;;;;;7.65;3.25;;;;;;;12.04;100.00;101198.47;5050032;28;20044;-52
2022/10/16 07:39:01;;;;;;;7.25;3.25;;;;;;;12.07;100.00;101204.41;5049997;28;20049;-50
2022/10/16 07:41:29;;;;;;;9.30;3.55;;;;;;;12.13;100.00;101213.69;5049040;28;20049;-56
2022/10/16 07:43:59;;;;;;;8.23;2.97;;;;;;;12.21;100.00;101218.47;5049155;28;20087;-53
2022/10/16 07:46:29;;;;;;;8.50;3.42;;;;;;;12.28;100.00;101217.13;5049547;28;20593;-54
2022/10/16 07:48:57;;;;;;;8.50;3.10;;;;;;;12.33;100.00;101221.13;5030730;28;20049;-51
2022/10/16 07:51:26;;;;;;;6.47;3.10;;;;;;;12.43;100.00;101217.88;5049521;28;20159;-50
2022/10/16 07:53:56;;;;;;;8.05;3.38;;;;;;;12.62;100.00;101226.22;5049821;28;20045;-54
2022/10/16 07:56:25;;;;;;;9.75;3.30;;;;;;;13.04;100.00;101225.22;5049439;28;20143;-53
2022/10/16 07:58:53;;;;;;;7.97;2.90;;;;;;;13.31;100.00;101225.91;5049014;28;20395;-55
2022/10/16 08:01:22;;;;;;;6.63;2.53;;;;;;;13.39;100.00;101229.81;5048836;28;20132;-56
2022/10/16 08:03:52;;;;;;;7.40;3.08;;;;;;;13.36;100.00;101236.16;5047933;28;20041;-55
2022/10/16 08:06:22;;;;;;;8.27;3.10;;;;;;;13.37;100.00;101242.31;5049670;28;20065;-56
2022/10/16 08:08:57;;;;;;;6.57;2.80;;;;;;;13.48;100.00;101245.88;5049751;28;20106;-57
2022/10/16 08:11:25;;;;;;;5.25;2.55;;;;;;;13.89;100.00;101248.28;5049488;28;20095;-56
2022/10/16 08:13:53;;;;;;;6.70;2.65;;;;;;;14.00;100.00;101243.06;5049354;28;20195;-55
2022/10/16 08:16:22;;;;;;;6.25;3.03;;;;;;;14.17;100.00;101245.31;5048794;28;20060;-57
2022/10/16 08:18:51;;;;;;;6.82;2.67;;;;;;;14.31;100.00;101239.00;5047994;28;20052;-56
2022/10/16 08:21:22;;;;;;;7.07;2.63;;;;;;;14.77;100.00;101239.16;5049596;28;20128;-47
2022/10/16 08:23:50;;;;;;;8.95;2.20;;;;;;;14.78;100.00;101231.09;5049415;28;20569;-51
2022/10/16 08:26:27;;;;;;;5.00;1.98;;;;;;;14.70;100.00;101244.91;5049202;28;20060;-51
2022/10/16 08:28:56;;;;;;;5.50;2.55;;;;;;;15.02;100.00;101251.34;5031764;28;20057;-50
2022/10/16 08:31:24;;;;;;;7.63;2.75;;;;;;;15.20;100.00;101265.81;5048933;28;20103;-49
2022/10/16 08:33:52;;;;;;;5.95;2.55;;;;;;;15.19;100.00;101258.00;5047745;28;20049;-51
2022/10/16 08:36:20;;;;;;;7.20;2.03;;;;;;;15.38;100.00;101271.47;5049592;28;20037;-50
2022/10/16 08:38:50;;;;;;;8.95;2.50;;;;;;;15.24;100.00;101268.22;5031903;28;20053;-53
2022/10/16 08:41:36;;;;;;;5.32;2.38;;;;;;;15.50;100.00;101272.31;5048890;28;20052;-51
2022/10/16 08:44:22;;;;;;;6.70;2.38;;;;;;;15.62;100.00;101272.28;5048525;28;20407;-48
2022/10/16 08:46:57;;;;;;;6.50;2.40;;;;;;;15.65;100.00;101283.50;5048574;28;20087;-51
2022/10/16 08:49:26;;;;;;;6.63;2.30;;;;;;;15.68;100.00;101285.91;5048042;28;20045;-50
2022/10/16 08:51:57;;;;;;;5.20;2.25;;;;;;;15.59;100.00;101293.75;5049288;28;20041;-52
2022/10/16 08:54:30;;;;;;;5.75;2.50;;;;;;;15.83;100.00;101299.78;5049078;28;20056;-50
2022/10/16 08:57:10;;;;;;;6.55;2.42;;;;;;;15.80;100.00;101301.81;5049023;28;20052;-51
2022/10/16 08:59:38;;;;;;;8.23;2.35;;;;;;;15.80;100.00;101297.38;5031795;28;20052;-51
2022/10/16 09:02:24;;;;;;;6.35;2.47;;;;;;;15.92;100.00;101306.13;5047793;28;20540;-52
2022/10/16 09:05:11;;;;;;;7.07;2.70;;;;;;;16.08;100.00;101304.91;5048900;28;20099;-51
2022/10/16 09:07:47;;;;;;;9.52;2.28;;;;;;;16.23;100.00;101308.97;5049162;28;20778;-51
2022/10/16 09:10:25;;;;;;;5.07;2.03;;;;;;;16.32;100.00;101312.66;5051697;28;20087;-48
2022/10/16 09:13:01;;;;;;;6.60;2.03;;;;;;;16.42;100.00;101315.44;5052989;28;20099;-58
2022/10/16 09:15:35;;;;;;;6.95;2.17;;;;;;;16.51;100.00;101311.97;5052720;28;20076;-57
2022/10/16 09:18:12;;;;;;;9.25;2.17;;;;;;;16.43;100.00;101314.44;5050703;28;20048;-58
2022/10/16 09:20:50;;;;;;;6.40;1.92;;;;;;;16.55;100.00;101326.69;5053289;28;20049;-58
2022/10/16 09:23:20;;;;;;;9.02;2.05;;;;;;;16.70;100.00;101333.41;5053281;28;20502;-58
2022/10/16 09:25:50;;;;;;;7.20;2.03;;;;;;;16.83;100.00;101340.34;5052386;28;20381;-58
2022/10/16 09:28:20;;;;;;;6.88;1.80;;;;;;;16.90;100.00;101333.56;5052625;28;20048;-58
2022/10/16 09:30:49;;;;;;;9.38;2.15;;;;;;;17.11;100.00;101335.38;5052747;28;20404;-58
2022/10/16 09:33:21;;;;;;;7.28;2.00;;;;;;;17.29;100.00;101332.94;5050643;28;20055;-58
2022/10/16 09:35:52;;;;;;;7.00;1.65;;;;;;;17.27;100.00;101335.72;5052514;28;20048;-52
2022/10/16 09:38:27;;;;;;;8.07;1.92;;;;;;;17.36;100.00;101334.94;5034722;28;20503;-52
2022/10/16 09:40:57;;;;;;;8.35;1.80;;;;;;;17.64;100.00;101335.22;5051935;28;20111;-51
2022/10/16 09:43:39;;;;;;;8.75;2.33;;;;;;;17.83;100.00;101341.56;5052096;28;20068;-52
2022/10/16 09:46:20;;;;;;;6.50;1.65;;;;;;;17.90;100.00;101346.22;5051884;28;20696;-54
2022/10/16 09:48:50;;;;;;;6.60;1.60;;;;;;;17.82;100.00;101345.19;5050966;28;20976;-54
2022/10/16 09:51:22;;;;;;;8.48;2.20;;;;;;;17.96;100.00;101349.34;5034473;28;20052;-53
2022/10/16 09:53:56;;;;;;;10.48;2.75;;;;;;;18.19;100.00;101352.63;5052338;28;20048;-51
2022/10/16 09:56:28;;;;;;;7.38;1.67;;;;;;;18.36;100.00;101356.41;5052002;28;20183;-53
2022/10/16 09:59:00;;;;;;;7.53;1.67;;;;;;;18.63;100.00;101361.06;5052145;28;20684;-53
2022/10/16 10:01:36;;;;;;;7.22;1.90;;;;;;;18.81;100.00;101357.69;5051946;28;20052;-53
2022/10/16 10:04:05;;;;;;;7.68;2.05;;;;;;;18.87;100.00;101359.78;5049762;28;20052;-53
2022/10/16 10:06:37;;;;;;;11.13;2.35;;;;;;;19.15;100.00;101360.75;5052568;28;20056;-51
2022/10/16 10:09:16;;;;;;;7.00;1.92;;;;;;;19.74;100.00;101355.22;5052017;28;21002;-55
2022/10/16 10:11:55;;;;;;;8.15;2.10;;;;;;;20.00;100.00;101360.75;5051997;28;20056;-54
2022/10/16 10:14:33;;;;;;;10.35;1.98;;;;;;;20.05;100.00;101369.13;5052298;28;20053;-53
2022/10/16 10:17:16;;;;;;;6.97;2.10;;;;;;;20.06;100.00;101376.16;5050792;28;20072;-53
2022/10/16 10:19:48;;;;;;;15.30;2.03;;;;;;;20.06;100.00;101370.81;5033402;28;20049;-55
2022/10/16 10:22:22;;;;;;;;;;;;;;;20.13;100.00;101368.38;5052015;28;20487;-54
2022/10/16 10:24:57;;;;;;;8.93;2.30;;;;;;;20.22;100.00;101364.81;5052059;28;19947;-53
2022/10/16 10:27:33;;;;;;;9.45;1.83;;;;;;;20.54;100.00;101366.13;5051301;28;20041;-54
2022/10/16 10:30:12;;;;;;;6.57;1.98;;;;;;;21.06;99.11;101360.03;5051715;28;20491;-54
2022/10/16 10:32:49;;;;;;;13.18;2.20;;;;;;;20.92;96.85;101363.31;5050187;28;20515;-53
2022/10/16 10:35:23;;;;;;;10.57;1.92;;;;;;;20.69;97.31;101371.78;5051194;28;20094;-53
2022/10/16 10:38:06;;;;;;;11.98;2.10;;;;;;;20.90;96.41;101376.84;5051798;28;20076;-50
2022/10/16 10:40:39;;;;;;;;;;;;;;;20.81;93.05;101371.56;5052215;28;20045;-51
2022/10/16 10:43:11;;;;;;;;;;;;;;;21.19;84.13;101377.53;5050671;28;20514;-54
2022/10/16 10:45:46;;;;;;;10.98;1.75;;;;;;;21.60;82.03;101375.13;5051399;28;20333;-53
2022/10/16 10:48:28;;;;;;;12.57;2.13;;;;;;;21.36;76.57;101373.13;5049838;28;20411;-54
2022/10/16 10:51:02;;;;;;;8.07;1.80;;;;;;;21.78;76.65;101383.91;5051288;28;20044;-53
2022/10/16 10:53:42;;;;;;;14.55;2.03;;;;;;;21.97;73.91;101381.16;5051255;28;20057;-55
2022/10/16 10:56:24;;;;;;;11.25;2.30;;;;;;;22.28;73.65;101382.22;5050784;28;20099;-52
2022/10/16 10:59:08;;;;;;;13.57;2.58;;;;;;;21.98;72.04;101380.97;5050723;28;20076;-60
2022/10/16 11:01:47;;;;;;;10.10;1.88;;;;;;;22.34;70.30;101378.06;5050687;28;20053;-59
2022/10/16 11:04:38;;;;;;;12.05;1.90;;;;;;;22.68;72.29;101384.34;5048858;28;20376;-60
2022/10/16 11:07:10;;;;;;;10.20;1.88;;;;;;;22.92;68.70;101380.81;5050451;28;20060;-60
2022/10/16 11:09:43;;;;;;;10.55;2.00;;;;;;;22.97;67.86;101394.53;5050626;28;20107;-60
2022/10/16 11:12:18;;;;;;;8.93;1.83;;;;;;;22.84;66.88;101394.19;5050084;28;20052;-61
2022/10/16 11:14:55;;;;;;;8.65;1.95;;;;;;;22.57;63.13;101394.34;5050894;28;20504;-53
2022/10/16 11:17:31;;;;;;;11.13;1.98;;;;;;;22.43;66.44;101387.81;5049007;28;20114;-55
2022/10/16 11:20:04;;;;;;;8.05;1.90;;;;;;;22.44;67.31;101392.19;5050469;28;20052;-55
2022/10/16 11:22:37;;;;;;;9.13;1.95;;;;;;;22.20;65.13;101400.13;5050416;28;20053;-55
2022/10/16 11:25:14;;;;;;;9.00;1.80;;;;;;;21.96;65.59;101401.72;5050177;28;20057;-54
2022/10/16 11:27:48;;;;;;;11.10;1.88;;;;;;;21.67;64.62;101410.94;5050163;28;20057;-55
2022/10/16 11:30:21;;;;;;;11.57;1.98;;;;;;;22.43;64.83;101411.94;5050317;28;20106;-55
2022/10/16 11:32:59;;;;;;;;;;;;;;;22.63;63.55;101414.28;5049165;28;20103;-56
2022/10/16 11:35:38;;;;;;;10.15;1.38;;;;;;;22.49;64.72;101418.47;5031932;28;20032;-55